Time;durP1;ratioP1;P1;durP2;ratioP2;P2;SDS_P1;SDS_P2;PMS_P1;PMS_P2;Temp;Humidity;BMP_temperature;BMP_pressure;BME280_temperature;BME280_humidity;BME280_pressure;Samples;Min_cycle;Max_cycle;Signal;HPM_P1;HPM_P2
2024/04/20 00:02:12;;;;;;;;;;;6.00;99.90;;;8.21;100.00;100089.72;5359307;26;19934;-86
2024/04/20 00:04:48;;;;;;;;;;;6.00;99.90;;;7.99;100.00;100078.31;5324908;26;20378;-87
2024/04/20 00:07:25;;;;;;;;;;;6.00;99.90;;;7.90;100.00;100094.00;5317670;26;19926;-87
2024/04/20 00:09:59;;;;;;;;;;;6.00;99.90;;;7.98;100.00;100101.09;5371807;26;20004;-88
2024/04/20 00:12:29;;;;;;;;;;;6.00;99.90;;;7.69;100.00;100062.47;5379245;26;19926;-85
2024/04/20 00:15:03;;;;;;;;;;;5.90;99.90;;;8.07;100.00;100097.06;5346405;26;20262;-86
2024/04/20 00:17:34;;;;;;;;;;;5.90;99.90;;;7.76;100.00;100072.28;5397137;26;19926;-87
2024/04/20 00:20:03;;;;;;;;;;;5.90;99.90;;;8.16;100.00;100103.94;5383729;26;19926;-87
2024/04/20 00:22:39;;;;;;;;;;;5.90;99.90;;;8.05;100.00;100121.72;5368642;26;19936;-85
2024/04/20 00:25:11;;;;;;;;;;;5.90;99.90;;;7.56;100.00;100058.75;5348166;26;19954;-85
2024/04/20 00:27:50;;;;;;;;;;;5.90;99.90;;;8.12;100.00;100080.97;5324755;26;19926;-88
2024/04/20 00:30:22;;;;;;;;;;;5.90;99.90;;;8.16;100.00;100131.09;5352950;26;19937;-86
2024/04/20 00:32:55;;;;;;;;;;;5.90;99.90;;;8.28;100.00;100134.00;5350989;26;19926;-87
2024/04/20 00:35:34;;;;;;;;;;;5.90;99.90;;;7.87;100.00;100137.88;5367558;26;19926;-90
2024/04/20 00:38:03;;;;;;;;;;;5.90;99.90;;;7.73;100.00;100123.47;5353949;26;19935;-87
2024/04/20 00:40:32;;;;;;;;;;;5.80;99.90;;;7.63;100.00;100115.75;5334788;26;19933;-88
2024/04/20 00:43:03;;;;;;;;;;;5.80;99.90;;;7.88;100.00;100125.97;5351755;26;19958;-86
2024/04/20 00:45:35;;;;;;;;;;;5.80;99.90;;;7.54;100.00;100104.28;5368953;26;19926;-86
2024/04/20 00:48:10;;;;;;;;;;;5.80;99.90;;;7.74;100.00;100142.25;5351828;26;20377;-86
2024/04/20 00:50:40;;;;;;;;;;;5.80;99.90;;;8.03;100.00;100151.00;5391514;26;19946;-88
2024/04/20 00:53:20;;;;;;;;;;;5.80;99.90;;;7.64;100.00;100150.00;5321596;26;19926;-84
2024/04/20 00:55:50;;;;;;;;;;;5.80;99.90;;;8.00;100.00;100162.28;5314699;26;19945;-86
2024/04/20 00:58:22;;;;;;;;;;;5.80;99.90;;;7.71;100.00;100185.31;5344626;26;19926;-87
2024/04/20 01:00:52;;;;;;;;;;;5.80;99.90;;;7.58;100.00;100170.69;5344618;26;19930;-85
2024/04/20 01:03:26;;;;;;;;;;;5.80;99.90;;;8.13;100.00;100185.88;5369545;26;19934;-85
2024/04/20 01:05:55;;;;;;;;;;;5.80;99.90;;;7.96;100.00;100171.09;5329205;26;20554;-85
2024/04/20 01:08:26;;;;;;;;;;;5.80;99.90;;;7.96;100.00;100196.34;5329498;26;19926;-85
2024/04/20 01:10:55;;;;;;;;;;;5.80;99.90;;;7.88;100.00;100205.56;5320173;26;19926;-86
2024/04/20 01:13:28;;;;;;;;;;;5.70;99.90;;;7.75;100.00;100186.56;5356254;26;19927;-86
2024/04/20 01:16:01;;;;;;;;;;;5.80;99.90;;;7.53;100.00;100207.63;5351869;26;19925;-87
2024/04/20 01:18:33;;;;;;;;;;;5.70;99.90;;;7.71;100.00;100212.47;5352405;26;19944;-86
2024/04/20 01:21:03;;;;;;;;;;;5.70;99.90;;;7.55;100.00;100192.81;5356305;26;19925;-84
2024/04/20 01:23:32;;;;;;;;;;;5.70;99.90;;;7.33;100.00;100168.56;5379891;26;19996;-89
2024/04/20 01:26:03;;;;;;;;;;;5.70;99.90;;;8.09;100.00;100230.81;5371331;26;19926;-88
2024/04/20 01:28:33;;;;;;;;;;;5.70;99.90;;;7.72;100.00;100223.09;5326603;26;19927;-83
2024/04/20 01:31:01;;;;;;;;;;;5.60;99.90;;;7.55;100.00;100171.09;5340567;26;19933;-85
2024/04/20 01:33:39;;;;;;;;;;;5.60;99.90;;;8.11;100.00;100241.50;5344950;26;19926;-87
2024/04/20 01:36:12;;;;;;;;;;;5.60;99.90;;;8.06;100.00;100236.69;5380044;26;19926;-89
2024/04/20 01:38:48;;;;;;;;;;;5.60;99.90;;;8.05;100.00;100245.88;5364638;26;19972;-86
2024/04/20 01:41:16;;;;;;;;;;;5.60;99.90;;;7.03;100.00;100155.38;5353275;26;19926;-88
2024/04/20 01:43:47;;;;;;;;;;;5.60;99.90;;;7.91;100.00;100251.31;5355084;26;20003;-87
2024/04/20 01:46:21;;;;;;;;;;;5.60;99.90;;;8.04;100.00;100260.50;5370767;26;20267;-88
2024/04/20 01:48:51;;;;;;;;;;;5.50;99.90;;;8.22;100.00;100265.31;5344364;26;19926;-83
2024/04/20 01:51:21;;;;;;;;;;;5.50;99.90;;;7.52;100.00;100258.38;5391061;26;19926;-86
2024/04/20 01:53:50;;;;;;;;;;;5.40;99.90;;;7.76;100.00;100264.25;5372054;26;19933;-85
2024/04/20 01:56:21;;;;;;;;;;;5.40;99.90;;;7.15;100.00;100219.88;5408287;26;19946;-84
2024/04/20 01:58:53;;;;;;;;;;;5.40;99.90;;;7.69;100.00;100274.25;5346370;26;19959;-90
2024/04/20 02:01:22;;;;;;;;;;;5.40;99.90;;;7.52;100.00;100268.38;5335425;26;19933;-88
2024/04/20 02:03:50;;;;;;;;;;;5.30;99.90;;;7.74;100.00;100293.50;5359114;26;19926;-84
2024/04/20 02:06:20;;;;;;;;;;;5.30;99.90;;;7.49;100.00;100280.50;5400012;26;19927;-84
2024/04/20 02:08:50;;;;;;;;;;;5.30;99.90;;;7.71;100.00;100299.34;5330123;26;19918;-85
2024/04/20 02:11:19;;;;;;;;;;;5.30;99.90;;;7.52;100.00;100290.09;5354437;26;19926;-85
2024/04/20 02:13:50;;;;;;;;;;;5.30;99.90;;;7.58;100.00;100271.13;5358673;26;19942;-87
2024/04/20 02:16:18;;;;;;;;;;;5.30;99.90;;;7.93;100.00;100310.88;5345464;26;19933;-84
2024/04/20 02:18:48;;;;;;;;;;;5.30;99.90;;;7.21;100.00;100232.66;5365338;26;19959;-88
2024/04/20 02:21:20;;;;;;;;;;;5.30;99.90;;;7.84;100.00;100284.97;5348254;26;19958;-85
2024/04/20 02:23:48;;;;;;;;;;;5.30;99.90;;;7.25;100.00;100284.59;5331043;26;19997;-87
2024/04/20 02:26:16;;;;;;;;;;;5.30;99.90;;;7.78;100.00;100327.34;5387689;26;22308;-87
2024/04/20 02:28:45;;;;;;;;;;;5.30;99.90;;;7.47;100.00;100323.31;5371466;26;19926;-86
2024/04/20 02:31:16;;;;;;;;;;;5.30;99.90;;;7.74;100.00;100317.94;5396140;26;19926;-87
2024/04/20 02:33:46;;;;;;;;;;;5.30;99.90;;;7.04;100.00;100291.84;5373609;26;19926;-85
2024/04/20 02:36:17;;;;;;;;;;;5.30;99.90;;;7.83;100.00;100343.88;5336970;26;19965;-87
2024/04/20 02:38:46;;;;;;;;;;;5.30;99.90;;;7.34;100.00;100349.34;5354365;26;20488;-86
2024/04/20 02:41:17;;;;;;;;;;;5.20;99.90;;;7.56;100.00;100337.50;5364353;26;19937;-88
2024/04/20 02:43:48;;;;;;;;;;;5.20;99.90;;;7.08;100.00;100271.41;5343012;26;19958;-88
2024/04/20 02:46:18;;;;;;;;;;;5.20;99.90;;;7.57;100.00;100347.38;5346172;26;19933;-86
2024/04/20 02:48:49;;;;;;;;;;;5.20;99.90;;;7.66;100.00;100369.72;5363588;26;19926;-88
2024/04/20 02:51:19;;;;;;;;;;;5.10;99.90;;;7.34;100.00;100371.06;5372450;26;19933;-87
2024/04/20 02:53:47;;;;;;;;;;;5.10;99.90;;;7.34;100.00;100371.06;5373546;26;19933;-87
2024/04/20 02:56:14;;;;;;;;;;;5.10;99.90;;;6.87;100.00;100337.44;5385406;26;19947;-84
2024/04/20 02:58:41;;;;;;;;;;;5.10;99.90;;;7.04;100.00;100344.22;5352126;26;19926;-85
2024/04/20 03:01:09;;;;;;;;;;;5.10;99.90;;;7.42;100.00;100389.06;5349257;26;19927;-85
2024/04/20 03:03:39;;;;;;;;;;;5.10;99.90;;;6.87;100.00;100322.03;5348020;26;19973;-86
2024/04/20 03:06:11;;;;;;;;;;;5.00;99.90;;;7.37;100.00;100374.41;5361567;26;19995;-83
2024/04/20 03:08:40;;;;;;;;;;;5.10;99.90;;;7.55;100.00;100385.56;5352932;26;19941;-89
2024/04/20 03:11:10;;;;;;;;;;;5.00;99.90;;;7.30;100.00;100367.09;5375166;26;19933;-85
2024/04/20 03:13:39;;;;;;;;;;;4.90;99.90;;;7.57;100.00;100396.22;5355864;26;19926;-87
2024/04/20 03:16:07;;;;;;;;;;;4.90;99.90;;;7.31;100.00;100387.75;5383484;26;19973;-85
2024/04/20 03:18:37;;;;;;;;;;;5.00;99.90;;;7.29;100.00;100392.56;5350352;26;19926;-85
2024/04/20 03:21:09;;;;;;;;;;;4.90;99.90;;;7.58;100.00;100408.75;5319914;26;19934;-85
2024/04/20 03:23:38;;;;;;;;;;;4.90;99.90;;;7.24;100.00;100395.03;5367925;26;19973;-88
2024/04/20 03:26:08;;;;;;;;;;;4.90;99.90;;;7.10;100.00;100374.28;5386558;26;19934;-87
2024/04/20 03:28:41;;;;;;;;;;;4.80;99.90;;;7.43;100.00;100422.47;5368015;26;19942;-85
2024/04/20 03:31:10;;;;;;;;;;;4.80;99.90;;;7.28;100.00;100423.44;5309160;26;19926;-85
2024/04/20 03:33:43;;;;;;;;;;;4.80;99.90;;;7.36;100.00;100413.44;5350854;26;19934;-86
2024/04/20 03:36:13;;;;;;;;;;;4.80;99.90;;;7.05;100.00;100396.59;5338122;26;19927;-86
2024/04/20 03:38:48;;;;;;;;;;;4.70;99.90;;;7.24;100.00;100354.34;5363227;26;19942;-89
2024/04/20 03:41:15;;;;;;;;;;;4.70;99.90;;;7.70;99.45;100433.47;5418553;26;19930;-87
2024/04/20 03:43:43;;;;;;;;;;;4.60;99.90;;;7.37;100.00;100437.69;5352649;26;19940;-88
2024/04/20 03:46:10;;;;;;;;;;;4.60;99.90;;;7.15;100.00;100439.63;5384856;26;19926;-85
2024/04/20 03:48:37;;;;;;;;;;;4.60;99.90;;;7.15;100.00;100401.66;5363678;26;19998;-85
2024/04/20 03:51:09;;;;;;;;;;;4.70;99.90;;;7.06;100.00;100403.72;5341111;26;19933;-86
2024/04/20 03:53:40;;;;;;;;;;;4.60;99.90;;;6.78;100.00;100420.84;5361741;26;19996;-84
2024/04/20 03:56:09;;;;;;;;;;;4.60;99.90;;;7.10;100.00;100410.41;5406820;26;19926;-87
2024/04/20 03:58:43;;;;;;;;;;;4.60;99.90;;;6.83;100.00;100434.63;5324817;26;19933;-89
2024/04/20 04:01:17;;;;;;;;;;;4.50;99.90;;;6.97;100.00;100441.00;5365215;26;19958;-89
2024/04/20 04:03:49;;;;;;;;;;;4.60;99.90;;;6.90;100.00;100446.38;5297823;26;19927;-87
2024/04/20 04:06:21;;;;;;;;;;;4.60;99.90;;;7.14;100.00;100484.06;5349075;26;19932;-87
2024/04/20 04:08:55;;;;;;;;;;;4.50;99.90;;;7.29;100.00;100486.69;5350130;26;19996;-89
2024/04/20 04:11:30;;;;;;;;;;;4.50;99.90;;;6.91;100.00;100471.63;5346596;26;19949;-86
2024/04/20 04:13:58;;;;;;;;;;;4.50;99.90;;;6.89;100.00;100477.25;5390099;26;19926;-86
2024/04/20 04:16:30;;;;;;;;;;;4.40;99.90;;;7.00;100.00;100496.72;5347524;26;20249;-84
2024/04/20 04:18:59;;;;;;;;;;;4.40;99.90;;;7.04;100.00;100501.56;5379798;26;19933;-85
2024/04/20 04:21:34;;;;;;;;;;;4.40;99.90;;;6.06;100.00;100438.94;5343721;26;19926;-86
2024/04/20 04:24:04;;;;;;;;;;;4.40;99.90;;;7.10;100.00;100518.91;5352495;26;19933;-85
2024/04/20 04:26:35;;;;;;;;;;;4.40;99.90;;;6.79;100.00;100457.78;5361878;26;19966;-87
2024/04/20 04:29:05;;;;;;;;;;;4.30;99.90;;;6.75;100.00;100497.97;5324433;26;19934;-86
2024/04/20 04:31:43;;;;;;;;;;;4.40;99.90;;;6.83;100.00;100480.75;5326672;26;19939;-88
2024/04/20 04:34:15;;;;;;;;;;;4.30;99.90;;;6.84;100.00;100520.38;5371497;26;19933;-88
2024/04/20 04:36:47;;;;;;;;;;;4.50;99.90;;;6.83;100.00;100520.56;5350365;26;19934;-87
2024/04/20 04:39:22;;;;;;;;;;;4.50;99.90;;;7.11;100.00;100500.75;5417032;26;19933;-87
2024/04/20 04:41:54;;;;;;;;;;;4.60;99.90;;;7.27;100.00;100526.75;5348336;26;19976;-87
2024/04/20 04:44:30;;;;;;;;;;;4.70;99.90;;;6.98;99.67;100474.38;5338368;26;19958;-86
2024/04/20 04:47:00;;;;;;;;;;;4.70;99.90;;;7.84;95.01;100535.66;5360279;26;19946;-85
2024/04/20 04:50:18;;;;;;;;;;;4.70;99.90;;;7.09;95.79;100454.00;5360202;26;19936;-87
2024/04/20 04:52:52;;;;;;;;;;;4.80;99.90;;;8.12;92.35;100544.78;5332305;26;19926;-87
2024/04/20 04:55:24;;;;;;;;;;;4.80;99.90;;;7.72;92.69;100515.56;5354482;26;19933;-87
2024/04/20 04:57:55;;;;;;;;;;;4.80;99.90;;;7.20;93.98;100477.88;5335574;26;19938;-88
2024/04/20 05:00:26;;;;;;;;;;;4.90;99.90;;;7.87;93.25;100489.06;5376206;26;19926;-86
2024/04/20 05:02:57;;;;;;;;;;;4.90;99.90;;;7.74;89.80;100530.59;5379917;26;19926;-86
2024/04/20 05:05:26;;;;;;;;;;;4.90;99.90;;;6.97;94.04;100573.06;5349955;26;19926;-86
2024/04/20 05:07:56;;;;;;;;;;;4.90;99.90;;;7.75;95.82;100585.75;5353448;26;19927;-87
2024/04/20 05:10:27;;;;;;;;;;;4.90;99.90;;;7.76;93.15;100592.88;5369619;26;19996;-88
2024/04/20 05:13:01;;;;;;;;;;;4.90;99.90;;;7.40;93.85;100588.44;5345202;26;19926;-84
2024/04/20 05:15:32;;;;;;;;;;;5.00;99.90;;;7.34;95.07;100598.22;5376671;26;19926;-85
2024/04/20 05:18:05;;;;;;;;;;;4.90;99.90;;;7.12;94.52;100572.97;5362457;26;19992;-85
2024/04/20 05:20:39;;;;;;;;;;;4.90;99.90;;;7.27;95.56;100571.03;5352791;26;19933;-87
2024/04/20 05:23:13;;;;;;;;;;;4.90;99.90;;;7.10;96.40;100580.47;5372984;26;20016;-88
2024/04/20 05:26:02;;;;;;;;;;;4.80;99.90;;;7.27;95.82;100619.00;5347978;26;19926;-83
2024/04/20 05:28:32;;;;;;;;;;;4.90;99.90;;;7.71;94.93;100620.63;5347653;26;19933;-87
2024/04/20 05:31:01;;;;;;;;;;;4.80;99.90;;;7.54;95.45;100611.94;5355976;26;19950;-82
2024/04/20 05:33:31;;;;;;;;;;;4.70;99.90;;;7.62;95.76;100629.97;5346691;26;19996;-86
2024/04/20 05:36:03;;;;;;;;;;;4.70;99.90;;;7.31;96.80;100595.91;5359733;26;19933;-83
2024/04/20 05:38:31;;;;;;;;;;;4.70;99.90;;;7.00;97.17;100583.50;5344508;26;19934;-86
2024/04/20 05:41:03;;;;;;;;;;;4.60;99.90;;;7.19;96.71;100633.59;5362409;26;19933;-85
2024/04/20 05:43:30;;;;;;;;;;;4.60;99.90;;;7.21;97.22;100645.06;5324541;26;19950;-82
2024/04/20 05:46:00;;;;;;;;;;;4.60;99.90;;;7.52;95.17;100615.88;5325727;26;20248;-87
2024/04/20 05:48:29;;;;;;;;;;;4.70;99.90;;;7.32;94.22;100655.41;5339109;26;19926;-84
2024/04/20 05:50:57;;;;;;;;;;;4.70;99.90;;;7.18;94.74;100642.75;5367291;26;19925;-82
2024/04/20 05:53:27;;;;;;;;;;;4.80;99.90;;;7.09;93.72;100649.31;5348901;26;19933;-83
2024/04/20 05:55:54;;;;;;;;;;;4.80;99.90;;;6.96;92.52;100658.16;5335259;26;20266;-83
2024/04/20 05:58:24;;;;;;;;;;;4.80;99.90;;;6.65;91.94;100589.66;5333896;26;19933;-84
2024/04/20 06:00:53;;;;;;;;;;;4.90;99.90;;;7.25;90.56;100656.38;5336502;26;19927;-82
2024/04/20 06:03:21;;;;;;;;;;;4.90;99.90;;;7.15;88.99;100635.84;5353646;26;20018;-84
2024/04/20 06:05:51;;;;;;;;;;;5.00;99.90;;;7.42;90.37;100673.22;5321584;26;19927;-84
2024/04/20 06:08:18;;;;;;;;;;;5.00;99.90;;;7.64;85.41;100668.63;5376617;26;19926;-83
2024/04/20 06:10:56;;;;;;;;;;;5.10;99.90;;;7.44;88.67;100680.13;5379735;26;19926;-83
2024/04/20 06:13:25;;;;;;;;;;;5.20;99.90;;;7.30;87.16;100641.19;5344917;26;19933;-85
2024/04/20 06:15:53;;;;;;;;;;;5.20;99.90;;;7.53;85.09;100655.56;5326303;26;20033;-84
2024/04/20 06:18:21;;;;;;;;;;;5.30;99.90;;;7.61;84.21;100675.25;5372289;26;19933;-81
2024/04/20 06:20:53;;;;;;;;;;;5.20;99.90;;;7.58;83.72;100659.38;5312409;26;19926;-81
2024/04/20 06:23:20;;;;;;;;;;;5.20;99.90;;;7.60;85.12;100699.91;5358527;26;19933;-79
2024/04/20 06:25:50;;;;;;;;;;;5.10;99.90;;;7.69;83.56;100673.44;5336247;26;19996;-79
2024/04/20 06:28:17;;;;;;;;;;;5.10;99.90;;;7.93;84.04;100699.31;5365279;26;19996;-81
2024/04/20 06:30:46;;;;;;;;;;;5.20;99.90;;;7.97;82.80;100670.72;5366780;26;20361;-82
2024/04/20 06:33:13;;;;;;;;;;;5.40;99.90;;;7.72;82.52;100698.34;5335410;26;19950;-79
2024/04/20 06:35:40;;;;;;;;;;;5.50;99.90;;;7.96;81.55;100698.09;5359751;26;19933;-81
2024/04/20 06:38:09;;;;;;;;;;;5.60;99.90;;;8.15;79.59;100716.41;5328855;26;20261;-81
2024/04/20 06:40:37;;;;;;;;;;;5.80;99.90;;;8.41;82.30;100733.91;5376806;26;19926;-86
2024/04/20 06:43:05;;;;;;;;;;;5.70;99.90;;;8.41;76.04;100700.47;5351279;26;19926;-81
2024/04/20 06:45:31;;;;;;;;;;;5.70;99.90;;;8.94;75.19;100699.03;5319002;26;19926;-83
2024/04/20 06:48:01;;;;;;;;;;;5.80;99.90;;;8.73;75.26;100703.56;5367751;26;20374;-86
2024/04/20 06:50:29;;;;;;;;;;;5.90;99.90;;;8.73;73.89;100720.69;5380599;26;19937;-85
2024/04/20 06:52:57;;;;;;;;;;;6.00;99.90;;;8.65;74.59;100718.16;5333489;26;19938;-84
2024/04/20 06:55:26;;;;;;;;;;;6.20;99.90;;;8.61;75.31;100708.75;5389987;26;19925;-86
2024/04/20 06:57:57;;;;;;;;;;;6.20;99.90;;;8.48;74.08;100693.16;5325042;26;19999;-85
2024/04/20 07:00:24;;;;;;;;;;;6.20;99.90;;;9.25;74.67;100736.56;5382906;26;19969;-86
2024/04/20 07:02:51;;;;;;;;;;;6.40;99.90;;;9.11;73.49;100734.88;5380153;26;19925;-82
2024/04/20 07:05:17;;;;;;;;;;;6.50;99.90;;;9.37;70.90;100706.84;5348121;26;19956;-82
2024/04/20 07:07:45;;;;;;;;;;;6.50;99.90;;;9.57;69.05;100720.50;5382986;26;19925;-82
2024/04/20 07:10:13;;;;;;;;;;;6.60;99.90;;;9.74;69.28;100717.34;5356684;26;19926;-83
2024/04/20 07:12:40;;;;;;;;;;;7.00;99.90;;;10.18;69.76;100743.13;5359356;26;19934;-83
2024/04/20 07:15:07;;;;;;;;;;;7.20;99.90;;;9.75;69.33;100744.41;5333426;26;20381;-81
2024/04/20 07:17:35;;;;;;;;;;;7.30;99.90;;;9.16;68.72;100697.84;5371959;26;19926;-82
2024/04/20 07:20:03;;;;;;;;;;;7.20;99.90;;;9.46;70.26;100746.47;5343519;26;19954;-81
2024/04/20 07:22:30;;;;;;;;;;;7.30;99.90;;;9.52;70.34;100706.66;5345544;26;20266;-82
2024/04/20 07:24:59;;;;;;;;;;;7.50;99.90;;;9.47;69.82;100730.97;5368180;26;19930;-83
2024/04/20 07:27:27;;;;;;;;;;;7.50;99.90;;;9.82;68.63;100766.22;5376147;26;19926;-80
2024/04/20 07:29:55;;;;;;;;;;;7.50;99.90;;;9.86;66.68;100707.53;5378633;26;19991;-80
2024/04/20 07:32:22;;;;;;;;;;;7.60;99.90;;;9.95;67.17;100772.69;5355312;26;19933;-79
2024/04/20 07:34:49;;;;;;;;;;;7.70;99.90;;;9.58;65.82;100760.31;5389524;26;20349;-82
2024/04/20 07:37:16;;;;;;;;;;;7.50;99.90;;;9.75;66.89;100751.72;5366892;26;20371;-82
2024/04/20 07:39:43;;;;;;;;;;;7.40;99.90;;;9.17;66.59;100770.28;5352339;26;19954;-81
2024/04/20 07:42:10;;;;;;;;;;;7.30;99.90;;;10.07;66.08;100732.84;5323833;26;19938;-81
2024/04/20 07:44:36;;;;;;;;;;;7.50;99.90;;;10.14;65.22;100724.66;5334121;26;19931;-81
2024/04/20 07:47:04;;;;;;;;;;;7.80;99.90;;;9.47;65.12;100756.31;5345796;26;19934;-79
2024/04/20 07:49:30;;;;;;;;;;;7.70;99.90;;;10.64;63.75;100735.91;5333197;26;20044;-80
2024/04/20 07:51:56;;;;;;;;;;;8.00;99.90;;;10.53;60.96;100709.31;5311247;26;19977;-80
2024/04/20 07:54:26;;;;;;;;;;;8.00;99.90;;;10.93;61.75;100760.97;5340368;26;19925;-79
2024/04/20 07:56:53;;;;;;;;;;;8.10;99.90;;;10.56;58.97;100732.56;5336324;26;19937;-80
2024/04/20 07:59:23;;;;;;;;;;;8.10;99.90;;;10.71;59.55;100762.31;5342663;26;19970;-79
2024/04/20 08:01:51;;;;;;;;;;;7.90;99.90;;;11.35;58.45;100768.75;5353428;26;19937;-80
2024/04/20 08:04:18;;;;;;;;;;;8.20;99.90;;;9.90;57.99;100752.38;5336543;26;20219;-81
2024/04/20 08:06:45;;;;;;;;;;;8.00;99.90;;;10.64;59.54;100763.19;5351515;26;19926;-78
2024/04/20 08:09:12;;;;;;;;;;;8.00;99.90;;;10.72;56.93;100718.47;5352508;26;19938;-79
2024/04/20 08:11:39;;;;;;;;;;;8.30;99.90;;;10.35;55.59;100720.88;5393845;26;20252;-79
2024/04/20 08:14:05;;;;;;;;;;;8.20;99.90;;;10.63;55.68;100730.69;5346412;26;20259;-80
2024/04/20 08:16:32;;;;;;;;;;;8.20;99.90;;;10.06;55.80;100739.34;5360716;26;19994;-80
2024/04/20 08:18:58;;;;;;;;;;;8.10;99.90;;;10.79;54.23;100748.47;5350796;26;19926;-80
2024/04/20 08:21:28;;;;;;;;;;;8.30;99.90;;;11.01;52.84;100738.06;5325573;26;20022;-78
2024/04/20 08:23:55;;;;;;;;;;;8.40;99.90;;;10.46;53.21;100700.28;5332587;26;19932;-80
2024/04/20 08:26:23;;;;;;;;;;;8.30;99.90;;;11.14;52.53;100744.50;5323477;26;20026;-81
2024/04/20 08:28:52;;;;;;;;;;;8.60;99.90;;;11.90;50.01;100712.66;5320779;26;19933;-81
2024/04/20 08:31:19;;;;;;;;;;;9.10;99.90;;;11.85;52.43;100749.94;5349416;26;19955;-80
2024/04/20 08:33:45;;;;;;;;;;;9.20;99.90;;;11.72;50.53;100731.75;5354715;26;19933;-82
2024/04/20 08:36:11;;;;;;;;;;;9.20;99.90;;;10.85;50.89;100711.25;5336911;26;19938;-81
2024/04/20 08:38:38;;;;;;;;;;;8.80;99.90;;;10.72;51.65;100737.56;5316334;26;20000;-81
2024/04/20 08:41:06;;;;;;;;;;;8.60;99.90;;;9.99;52.42;100760.31;5375276;26;20374;-84
2024/04/20 08:43:33;;;;;;;;;;;8.10;99.90;;;10.84;52.67;100780.53;5352437;26;20310;-82
2024/04/20 08:46:04;;;;;;;;;;;8.10;99.90;;;10.80;52.26;100780.16;5366029;26;19937;-82
2024/04/20 08:48:31;;;;;;;;;;;8.30;99.90;;;11.00;51.37;100738.28;5384533;26;19926;-81
2024/04/20 08:51:04;;;;;;;;;;;8.60;99.90;;;12.35;50.58;100765.50;5352186;26;19926;-82
2024/04/20 08:53:36;;;;;;;;;;;9.40;99.90;;;12.35;49.10;100754.56;5339955;26;19930;-83
2024/04/20 08:56:04;;;;;;;;;;;9.70;99.90;;;11.50;48.86;100743.03;5318847;26;20281;-80
2024/04/20 08:58:30;;;;;;;;;;;9.30;99.90;;;12.48;48.13;100757.16;5328313;26;19933;-79
2024/04/20 09:00:59;;;;;;;;;;;9.70;99.90;;;10.78;48.46;100730.41;5331889;26;19958;-81
2024/04/20 09:03:28;;;;;;;;;;;9.10;99.90;;;10.57;50.69;100754.19;5383931;26;19933;-81
2024/04/20 09:05:55;;;;;;;;;;;8.60;99.90;;;11.28;49.01;100724.25;5348825;26;20291;-81
2024/04/20 09:08:22;;;;;;;;;;;8.90;99.90;;;10.89;48.81;100740.63;5351807;26;20419;-81
2024/04/20 09:10:51;;;;;;;;;;;8.80;99.90;;;11.00;48.48;100722.75;5342230;26;19995;-80
2024/04/20 09:13:18;;;;;;;;;;;8.80;99.90;;;11.67;47.72;100759.72;5336230;26;19999;-80
2024/04/20 09:15:46;;;;;;;;;;;9.00;99.90;;;11.88;48.31;100763.16;5326189;26;20366;-86
2024/04/20 09:18:13;;;;;;;;;;;8.90;99.90;;;11.07;49.65;100769.13;5334202;26;19926;-84
2024/04/20 09:20:40;;;;;;;;;;;8.80;99.90;;;10.29;49.28;100749.81;5356969;26;20426;-82
2024/04/20 09:23:09;;;;;;;;;;;8.60;99.90;;;10.95;49.70;100788.06;5359580;26;20022;-80
2024/04/20 09:25:37;;;;;;;;;;;8.60;99.90;;;10.91;49.40;100786.84;5340379;26;19933;-82
2024/04/20 09:28:07;;;;;;;;;;;8.50;99.90;;;10.90;48.09;100774.25;5325136;26;19954;-79
2024/04/20 09:30:34;;;;;;;;;;;8.60;99.90;;;11.62;47.55;100759.56;5370444;26;19995;-82
2024/04/20 09:33:01;;;;;;;;;;;8.90;99.90;;;12.14;46.39;100759.38;5355090;26;19934;-81
2024/04/20 09:35:27;;;;;;;;;;;9.40;99.90;;;12.75;47.10;100795.19;5329933;26;19933;-84
2024/04/20 09:37:53;;;;;;;;;;;9.80;99.90;;;12.23;46.14;100759.94;5331937;26;19938;-81
2024/04/20 09:40:19;;;;;;;;;;;9.80;99.80;;;11.50;44.49;100713.00;5381345;26;20251;-83
2024/04/20 09:42:46;;;;;;;;;;;9.60;97.20;;;12.85;43.49;100715.22;5349756;26;20274;-83
2024/04/20 09:45:13;;;;;;;;;;;10.00;98.20;;;13.61;41.93;100725.78;5328179;26;19927;-83
2024/04/20 09:47:40;;;;;;;;;;;10.60;96.80;;;13.20;41.46;100697.28;5381808;26;19997;-83
2024/04/20 09:50:11;;;;;;;;;;;10.80;95.10;;;12.05;42.57;100686.91;5401039;26;19925;-83
2024/04/20 09:52:59;;;;;;;;;;;10.40;95.60;;;12.28;43.61;100699.09;5353965;26;20371;-82
2024/04/20 09:55:30;;;;;;;;;;;10.00;96.40;;;12.60;42.88;100702.50;5374586;26;20374;-85
2024/04/20 09:57:59;;;;;;;;;;;10.10;96.10;;;11.92;43.32;100699.59;5326055;26;19927;-84
2024/04/20 10:00:26;;;;;;;;;;;9.80;95.70;;;11.70;42.65;100663.63;5366146;26;19953;-85
2024/04/20 10:02:55;;;;;;;;;;;9.70;94.10;;;11.75;42.75;100706.69;5397196;26;19927;-86
2024/04/20 10:05:22;;;;;;;;;;;9.60;95.20;;;11.72;44.42;100729.84;5377759;26;20018;-84
2024/04/20 10:07:50;;;;;;;;;;;9.40;96.40;;;12.15;44.73;100741.06;5341033;26;19926;-83
2024/04/20 10:10:16;;;;;;;;;;;9.50;97.10;;;12.56;44.47;100727.81;5338884;26;19978;-83
2024/04/20 10:12:43;;;;;;;;;;;9.90;97.30;;;12.42;43.70;100725.22;5375268;26;19962;-81
2024/04/20 10:15:10;;;;;;;;;;;10.00;96.50;;;12.63;43.59;100720.34;5346162;26;19926;-83
2024/04/20 10:17:37;;;;;;;;;;;10.10;96.30;;;14.06;41.26;100688.75;5377783;26;20393;-82
2024/04/20 10:20:05;;;;;;;;;;;;;;;14.31;41.08;100728.81;5364264;26;19936;-80
2024/04/20 10:22:38;;;;;;;;;;;11.00;95.20;;;13.66;40.43;100697.69;5401598;26;19926;-81
2024/04/20 10:25:10;;;;;;;;;;;11.80;91.90;;;13.13;41.22;100675.50;5374130;26;19938;-80
2024/04/20 10:27:41;;;;;;;;;;;11.20;92.90;;;13.69;40.47;100710.91;5369969;26;20290;-84
2024/04/20 10:30:09;;;;;;;;;;;11.10;92.60;;;13.06;40.02;100678.31;5337660;26;20322;-81
2024/04/20 10:32:36;;;;;;;;;;;11.00;91.70;;;13.72;39.43;100668.47;5345315;26;20350;-81
2024/04/20 10:35:06;;;;;;;;;;;11.00;91.60;;;12.48;38.87;100638.66;5365139;26;19940;-83
2024/04/20 10:37:35;;;;;;;;;;;10.50;90.20;;;12.23;39.67;100625.91;5395875;26;19927;-80
2024/04/20 10:40:12;;;;;;;;;;;10.10;90.40;;;12.48;39.44;100634.03;5374339;26;19926;-83
2024/04/20 10:42:38;;;;;;;;;;;10.20;90.70;;;12.88;38.09;100638.13;5340627;26;20277;-84
2024/04/20 10:45:11;;;;;;;;;;;10.10;88.50;;;13.61;37.46;100638.06;5363384;26;19942;-85
2024/04/20 10:47:38;;;;;;;;;;;10.60;89.60;;;12.80;38.24;100632.97;5348470;26;19933;-81
2024/04/20 10:50:08;;;;;;;;;;;10.70;89.30;;;13.09;38.86;100675.09;5345349;26;20306;-82
2024/04/20 10:52:34;;;;;;;;;;;10.40;89.30;;;11.70;39.53;100608.97;5366331;26;19932;-80
2024/04/20 10:55:09;;;;;;;;;;;10.30;90.10;;;13.17;40.07;100714.19;5315254;26;19953;-81
2024/04/20 10:57:38;;;;;;;;;;;10.50;90.90;;;12.68;39.27;100687.66;5407766;26;19938;-82
2024/04/20 11:00:04;;;;;;;;;;;10.60;88.90;;;11.72;38.76;100630.63;5347405;26;19926;-81
2024/04/20 11:02:31;;;;;;;;;;;10.20;87.70;;;11.84;38.66;100650.69;5374480;26;20000;-82
2024/04/20 11:04:58;;;;;;;;;;;10.20;87.20;;;12.93;37.68;100662.06;5338926;26;20349;-82
2024/04/20 11:07:25;;;;;;;;;;;10.60;86.00;;;12.89;36.16;100633.47;5414161;26;19966;-83
2024/04/20 11:09:52;;;;;;;;;;;10.80;82.90;;;14.68;35.35;100664.53;5370558;26;19925;-83
2024/04/20 11:12:21;;;;;;;;;;;11.70;84.00;;;13.02;34.63;100572.19;5385409;26;19938;-83
2024/04/20 11:14:58;;;;;;;;;;;11.70;80.60;;;13.30;36.61;100640.03;5346273;26;20260;-82
2024/04/20 11:17:26;;;;;;;;;;;11.70;82.30;;;13.83;36.52;100639.38;5381704;26;19926;-82
2024/04/20 11:19:52;;;;;;;;;;;12.10;82.30;;;12.95;35.54;100577.78;5354698;26;19934;-83
2024/04/20 11:22:19;;;;;;;;;;;11.80;80.80;;;13.60;36.62;100628.19;5348587;26;20367;-83
2024/04/20 11:24:46;;;;;;;;;;;11.60;83.60;;;13.71;37.28;100677.75;5358836;26;19926;-83
2024/04/20 11:27:16;;;;;;;;;;;12.00;83.50;;;12.63;37.84;100619.94;5349613;26;19937;-82
2024/04/20 11:29:45;;;;;;;;;;;11.30;83.30;;;14.17;37.24;100702.69;5363862;26;19955;-82
2024/04/20 11:32:21;;;;;;;;;;;11.80;83.90;;;13.40;33.55;100568.22;5343187;26;19995;-82